createdAt,value
2019-01-26T00:00:45.260Z,-0.40
2019-01-26T00:03:13.896Z,-0.40
2019-01-26T00:05:42.423Z,-0.30
2019-01-26T00:08:10.982Z,-0.30
2019-01-26T00:10:39.511Z,-0.30
2019-01-26T00:13:08.047Z,-0.30
2019-01-26T00:15:36.668Z,-0.30
2019-01-26T00:18:05.503Z,-0.20
2019-01-26T00:20:36.385Z,-0.20
2019-01-26T00:23:04.258Z,-0.20
2019-01-26T00:25:32.815Z,-0.20
2019-01-26T00:28:01.271Z,-0.20
2019-01-26T00:30:30.103Z,-0.20
2019-01-26T00:32:58.563Z,-0.10
2019-01-26T00:35:27.475Z,-0.10
2019-01-26T00:37:55.937Z,-0.10
2019-01-26T00:40:24.490Z,0.00
2019-01-26T00:42:53.231Z,0.00
2019-01-26T00:45:21.898Z,0.00
2019-01-26T00:47:50.803Z,0.00
2019-01-26T00:50:19.326Z,0.00
2019-01-26T00:52:47.880Z,0.20
2019-01-26T00:55:16.847Z,0.20
2019-01-26T00:57:45.397Z,0.20
2019-01-26T01:00:20.210Z,0.20
2019-01-26T01:02:48.927Z,0.10
2019-01-26T01:05:17.719Z,0.10
2019-01-26T01:07:46.547Z,0.10
2019-01-26T01:10:21.307Z,0.10
2019-01-26T01:12:50.160Z,0.10
2019-01-26T01:15:21.127Z,0.10
2019-01-26T01:17:49.719Z,0.10
2019-01-26T01:20:19.039Z,0.10
2019-01-26T01:22:47.738Z,0.10
2019-01-26T01:25:16.355Z,0.20
2019-01-26T01:27:44.807Z,0.10
2019-01-26T01:30:21.729Z,0.20
2019-01-26T01:32:50.250Z,0.10
2019-01-26T01:35:18.876Z,0.20
2019-01-26T01:37:47.399Z,0.20
2019-01-26T01:40:17.591Z,0.20
2019-01-26T01:42:46.182Z,0.20
2019-01-26T01:45:17.871Z,0.20
2019-01-26T01:47:46.370Z,0.20
2019-01-26T01:50:15.491Z,0.20
2019-01-26T01:52:44.110Z,0.20
2019-01-26T01:55:13.083Z,0.20
2019-01-26T01:57:42.075Z,0.20
2019-01-26T02:00:19.770Z,0.20
2019-01-26T02:02:48.762Z,0.30
2019-01-26T02:05:17.454Z,0.30
2019-01-26T02:07:45.998Z,0.30
2019-01-26T02:10:17.473Z,0.30
2019-01-26T02:12:46.375Z,0.30
2019-01-26T02:15:15.003Z,0.30
2019-01-26T02:17:43.647Z,0.30
2019-01-26T02:20:17.851Z,0.40
2019-01-26T02:22:46.489Z,0.40
2019-01-26T02:25:15.174Z,0.40
2019-01-26T02:27:44.023Z,0.40
2019-01-26T02:30:18.493Z,0.40
2019-01-26T02:32:47.438Z,0.50
2019-01-26T02:35:16.067Z,0.50
2019-01-26T02:37:44.524Z,0.50
2019-01-26T02:40:15.215Z,0.50
2019-01-26T02:42:43.730Z,0.50
2019-01-26T02:45:14.020Z,0.50
2019-01-26T02:47:42.636Z,0.50
2019-01-26T02:50:13.804Z,0.60
2019-01-26T02:52:42.398Z,0.50
2019-01-26T02:55:11.864Z,0.60
2019-01-26T02:57:40.464Z,0.60
2019-01-26T03:00:24.702Z,0.60
2019-01-26T03:02:53.232Z,0.60
2019-01-26T03:05:22.266Z,0.60
2019-01-26T03:07:50.720Z,0.60
2019-01-26T03:10:21.516Z,0.70
2019-01-26T03:12:50.135Z,0.60
2019-01-26T03:15:23.318Z,0.70
2019-01-26T03:17:52.011Z,0.70
2019-01-26T03:20:20.599Z,0.70
2019-01-26T03:22:49.085Z,0.70
2019-01-26T03:25:17.603Z,0.70
2019-01-26T03:27:46.155Z,0.70
2019-01-26T03:30:23.786Z,0.70
2019-01-26T03:32:52.349Z,0.70
2019-01-26T03:35:21.008Z,0.70
2019-01-26T03:37:49.527Z,0.70
2019-01-26T03:40:20.357Z,0.80
2019-01-26T03:42:48.953Z,0.80
2019-01-26T03:45:17.919Z,0.80
2019-01-26T03:47:47.304Z,0.80
2019-01-26T03:50:16.477Z,0.80
2019-01-26T03:52:45.765Z,0.80
2019-01-26T03:55:17.547Z,0.80
2019-01-26T03:57:46.429Z,0.70
2019-01-26T04:00:20.643Z,0.80
2019-01-26T04:02:49.204Z,0.80
2019-01-26T04:05:17.926Z,0.80
2019-01-26T04:07:46.452Z,0.80
2019-01-26T04:10:16.144Z,0.80
2019-01-26T04:12:45.480Z,0.80
2019-01-26T04:15:20.758Z,0.90
2019-01-26T04:17:49.647Z,0.90
2019-01-26T04:20:21.950Z,0.90
2019-01-26T04:22:51.041Z,0.90
2019-01-26T04:25:20.458Z,0.90
2019-01-26T04:27:48.934Z,0.90
2019-01-26T04:30:19.439Z,0.90
2019-01-26T04:32:48.057Z,0.90
2019-01-26T04:35:16.954Z,1.00
2019-01-26T04:37:45.676Z,1.00
2019-01-26T04:40:18.626Z,1.00
2019-01-26T04:42:47.150Z,1.00
2019-01-26T04:45:18.071Z,1.00
2019-01-26T04:47:46.667Z,1.00
2019-01-26T04:50:17.392Z,1.00
2019-01-26T04:52:45.926Z,1.00
2019-01-26T04:55:15.815Z,1.00
2019-01-26T04:57:44.634Z,1.00
2019-01-26T05:00:19.541Z,1.10
2019-01-26T05:02:48.067Z,1.10
2019-01-26T05:05:17.363Z,1.10
2019-01-26T05:07:45.827Z,1.10
2019-01-26T05:10:17.217Z,1.10
2019-01-26T05:12:46.011Z,1.10
2019-01-26T05:15:15.783Z,1.10
2019-01-26T05:17:44.262Z,1.20
2019-01-26T05:20:21.185Z,1.20
2019-01-26T05:22:49.817Z,1.20
2019-01-26T05:25:18.416Z,1.30
2019-01-26T05:27:47.011Z,1.30
2019-01-26T05:30:18.695Z,1.30
2019-01-26T05:32:47.231Z,1.30
2019-01-26T05:35:15.851Z,1.30
2019-01-26T05:37:44.458Z,1.30
2019-01-26T05:40:15.832Z,1.40
2019-01-26T05:42:44.502Z,1.40
2019-01-26T05:45:15.769Z,1.40
2019-01-26T05:47:48.650Z,1.40
2019-01-26T05:50:19.652Z,1.40
2019-01-26T05:52:48.279Z,1.50
2019-01-26T05:55:16.876Z,1.50
2019-01-26T05:57:45.424Z,1.50
2019-01-26T06:00:23.854Z,1.50
2019-01-26T06:02:52.416Z,1.50
2019-01-26T06:05:21.111Z,1.50
2019-01-26T06:07:50.135Z,1.50
2019-01-26T06:10:18.786Z,1.50
2019-01-26T06:12:47.316Z,1.50
2019-01-26T06:15:16.135Z,1.50
2019-01-26T06:17:44.666Z,1.60
2019-01-26T06:20:15.554Z,1.50
2019-01-26T06:22:44.015Z,1.50
2019-01-26T06:25:18.038Z,1.50
2019-01-26T06:27:46.988Z,1.50
2019-01-26T06:30:18.751Z,1.50
2019-01-26T06:32:47.375Z,1.50
2019-01-26T06:35:15.836Z,1.50
2019-01-26T06:37:44.385Z,1.60
2019-01-26T06:40:15.479Z,1.60
2019-01-26T06:42:44.033Z,1.60
2019-01-26T06:45:17.219Z,1.60
2019-01-26T06:47:45.834Z,1.60
2019-01-26T06:50:18.404Z,1.60
2019-01-26T06:52:47.078Z,1.60
2019-01-26T06:55:15.794Z,1.70
2019-01-26T06:57:44.319Z,1.60
2019-01-26T07:00:18.261Z,1.70
2019-01-26T07:02:46.743Z,1.60
2019-01-26T07:05:28.723Z,1.70
2019-01-26T07:07:57.185Z,1.70
2019-01-26T07:10:25.640Z,1.70
2019-01-26T07:12:54.477Z,1.70
2019-01-26T07:15:23.171Z,1.70
2019-01-26T07:17:51.627Z,1.70
2019-01-26T07:20:20.351Z,1.80
2019-01-26T07:22:49.323Z,1.80
2019-01-26T07:25:18.279Z,1.80
2019-01-26T07:27:46.739Z,1.80
2019-01-26T07:30:26.015Z,1.90
2019-01-26T07:32:54.555Z,1.90
2019-01-26T07:35:23.152Z,1.90
2019-01-26T07:37:51.982Z,1.90
2019-01-26T07:40:23.123Z,1.90
2019-01-26T07:42:51.780Z,1.90
2019-01-26T07:45:21.220Z,1.90
2019-01-26T07:47:49.847Z,1.90
2019-01-26T07:50:24.005Z,1.90
2019-01-26T07:52:52.934Z,2.00
2019-01-26T07:55:21.894Z,2.00
2019-01-26T07:57:50.499Z,2.00
2019-01-26T08:00:27.514Z,2.10
2019-01-26T08:02:56.415Z,2.10
2019-01-26T08:05:25.571Z,2.10
2019-01-26T08:07:54.119Z,2.10
2019-01-26T08:10:24.610Z,2.10
2019-01-26T08:12:53.609Z,2.10
2019-01-26T08:15:25.172Z,2.10
2019-01-26T08:17:53.702Z,2.20
2019-01-26T08:20:22.599Z,2.20
2019-01-26T08:22:51.231Z,2.20
2019-01-26T08:25:19.831Z,2.20
2019-01-26T08:27:48.483Z,2.30
2019-01-26T08:30:19.484Z,2.30
2019-01-26T08:32:48.304Z,2.30
2019-01-26T08:35:17.276Z,2.30
2019-01-26T08:37:45.963Z,2.40
2019-01-26T08:40:17.243Z,2.40
2019-01-26T08:42:45.787Z,2.40
2019-01-26T08:45:15.478Z,2.40
2019-01-26T08:47:44.300Z,2.50
2019-01-26T08:50:18.791Z,2.50
2019-01-26T08:52:47.515Z,2.50
2019-01-26T08:55:18.418Z,2.60
2019-01-26T08:57:46.354Z,2.60
2019-01-26T09:00:24.091Z,2.60
2019-01-26T09:02:55.202Z,2.60
2019-01-26T09:05:26.034Z,2.60
2019-01-26T09:07:54.482Z,2.60
2019-01-26T09:10:22.971Z,2.70
2019-01-26T09:12:51.499Z,2.70
2019-01-26T09:15:20.613Z,2.70
2019-01-26T09:17:49.307Z,2.80
2019-01-26T09:20:18.507Z,2.80
2019-01-26T09:22:47.036Z,2.80
2019-01-26T09:25:15.700Z,2.90
2019-01-26T09:27:44.595Z,2.90
2019-01-26T09:30:18.551Z,2.90
2019-01-26T09:32:47.099Z,3.00
2019-01-26T09:35:15.631Z,3.00
2019-01-26T09:37:44.346Z,3.10
2019-01-26T09:40:20.860Z,3.10
2019-01-26T09:42:49.864Z,3.10
2019-01-26T09:45:21.883Z,3.20
2019-01-26T09:47:50.430Z,3.30
2019-01-26T09:50:20.518Z,3.30
2019-01-26T09:52:49.071Z,3.40
2019-01-26T09:55:18.963Z,3.30
2019-01-26T09:57:47.654Z,3.40
2019-01-26T10:00:27.687Z,3.40
2019-01-26T10:02:56.247Z,3.50
2019-01-26T10:05:24.852Z,3.50
2019-01-26T10:07:53.744Z,3.50
2019-01-26T10:10:22.670Z,3.60
2019-01-26T10:12:51.115Z,3.60
2019-01-26T10:15:28.572Z,3.60
2019-01-26T10:17:57.496Z,3.70
2019-01-26T10:20:40.791Z,3.80
2019-01-26T10:23:09.322Z,3.80
2019-01-26T10:25:37.983Z,3.90
2019-01-26T10:28:06.996Z,4.00
2019-01-26T10:30:42.559Z,4.10
2019-01-26T10:33:11.110Z,4.10
2019-01-26T10:35:41.271Z,4.20
2019-01-26T10:38:09.747Z,4.20
2019-01-26T10:40:55.184Z,4.20
2019-01-26T10:43:28.307Z,4.20
2019-01-26T10:45:56.758Z,4.20
2019-01-26T10:48:25.294Z,4.30
2019-01-26T10:50:53.840Z,4.30
2019-01-26T10:53:22.411Z,4.20
2019-01-26T10:55:50.898Z,4.30
2019-01-26T10:58:19.860Z,4.30
2019-01-26T11:00:48.856Z,4.30
2019-01-26T11:03:17.407Z,4.30
2019-01-26T11:05:45.854Z,4.30
2019-01-26T11:08:14.304Z,4.30
2019-01-26T11:10:42.851Z,4.40
2019-01-26T11:13:11.388Z,4.40
2019-01-26T11:15:40.031Z,4.50
2019-01-26T11:18:08.479Z,4.50
2019-01-26T11:20:37.019Z,4.60
2019-01-26T11:23:05.467Z,4.70
2019-01-26T11:25:34.115Z,4.80
2019-01-26T11:28:02.855Z,5.00
2019-01-26T11:30:32.970Z,5.10
2019-01-26T11:33:01.419Z,5.20
2019-01-26T11:35:29.936Z,5.20
2019-01-26T11:37:58.411Z,5.20
2019-01-26T11:40:26.935Z,5.20
2019-01-26T11:42:55.488Z,5.10
2019-01-26T11:45:28.585Z,5.00
2019-01-26T11:47:58.871Z,5.00
2019-01-26T11:50:44.583Z,5.00
2019-01-26T11:53:13.059Z,5.00
2019-01-26T11:55:43.220Z,5.00
2019-01-26T11:58:11.691Z,5.10
2019-01-26T12:00:41.779Z,5.10
2019-01-26T12:03:11.895Z,5.20
2019-01-26T12:05:41.987Z,5.30
2019-01-26T12:08:10.712Z,5.50
2019-01-26T12:10:39.263Z,5.80
2019-01-26T12:13:07.715Z,6.10
2019-01-26T12:15:36.191Z,6.40
2019-01-26T12:18:04.980Z,6.50
2019-01-26T12:20:33.468Z,6.80
2019-01-26T12:23:02.420Z,6.80
2019-01-26T12:25:31.412Z,6.90
2019-01-26T12:27:59.864Z,7.30
2019-01-26T12:30:28.306Z,7.30
2019-01-26T12:32:56.859Z,7.00
2019-01-26T12:35:25.315Z,6.70
2019-01-26T12:37:53.867Z,6.50
2019-01-26T12:40:22.315Z,6.40
2019-01-26T12:42:50.791Z,6.40
2019-01-26T12:45:22.364Z,6.40
2019-01-26T12:47:50.950Z,6.40
2019-01-26T12:50:19.576Z,6.60
2019-01-26T12:52:48.120Z,6.60
2019-01-26T12:55:17.806Z,6.60
2019-01-26T12:57:46.356Z,6.70
2019-01-26T13:00:22.539Z,6.60
2019-01-26T13:02:51.090Z,6.70
2019-01-26T13:05:19.711Z,6.90
2019-01-26T13:07:48.222Z,7.60
2019-01-26T13:10:28.763Z,7.90
2019-01-26T13:12:57.379Z,7.90
2019-01-26T13:15:26.255Z,8.20
2019-01-26T13:17:54.706Z,8.30
2019-01-26T13:20:23.827Z,8.30
2019-01-26T13:22:52.346Z,8.20
2019-01-26T13:25:21.512Z,8.00
2019-01-26T13:27:50.127Z,7.90
2019-01-26T13:30:23.730Z,7.70
2019-01-26T13:32:52.262Z,7.60
2019-01-26T13:35:20.946Z,7.40
2019-01-26T13:37:49.588Z,7.20
2019-01-26T13:40:26.299Z,7.00
2019-01-26T13:42:54.917Z,6.80
2019-01-26T13:45:23.507Z,6.60
2019-01-26T13:47:51.983Z,6.50
2019-01-26T13:50:20.498Z,6.20
2019-01-26T13:52:49.147Z,6.20
2019-01-26T13:55:19.741Z,6.10
2019-01-26T13:57:48.364Z,6.10
2019-01-26T14:00:20.241Z,6.00
2019-01-26T14:02:49.094Z,6.00
2019-01-26T14:05:17.791Z,5.90
2019-01-26T14:07:46.318Z,5.90
2019-01-26T14:10:17.239Z,5.80
2019-01-26T14:12:45.770Z,5.70
2019-01-26T14:15:16.759Z,5.80
2019-01-26T14:17:45.916Z,5.80
2019-01-26T14:20:22.983Z,5.80
2019-01-26T14:22:52.011Z,5.70
2019-01-26T14:25:20.623Z,5.70
2019-01-26T14:27:49.519Z,5.60
2019-01-26T14:30:24.223Z,5.60
2019-01-26T14:32:52.872Z,5.60
2019-01-26T14:35:21.499Z,5.60
2019-01-26T14:37:49.947Z,5.50
2019-01-26T14:40:18.846Z,5.50
2019-01-26T14:42:53.970Z,5.50
2019-01-26T14:45:18.483Z,5.40
2019-01-26T14:47:47.100Z,5.40
2019-01-26T14:50:18.030Z,5.30
2019-01-26T14:52:47.285Z,5.40
2019-01-26T14:55:24.247Z,5.40
2019-01-26T14:57:52.863Z,5.40
2019-01-26T15:00:36.248Z,5.50
2019-01-26T15:03:05.139Z,5.50
2019-01-26T15:05:33.931Z,5.50
2019-01-26T15:08:02.651Z,5.60
2019-01-26T15:10:31.237Z,5.60
2019-01-26T15:13:00.015Z,5.60
2019-01-26T15:15:28.463Z,5.60
2019-01-26T15:17:57.008Z,5.60
2019-01-26T15:20:37.422Z,5.50
2019-01-26T15:23:07.008Z,5.50
2019-01-26T15:25:36.175Z,5.40
2019-01-26T15:28:05.547Z,5.40
2019-01-26T15:30:37.099Z,5.30
2019-01-26T15:33:06.386Z,5.30
2019-01-26T15:35:34.927Z,5.30
2019-01-26T15:38:04.047Z,5.30
2019-01-26T15:40:32.872Z,5.20
2019-01-26T15:43:01.395Z,5.10
2019-01-26T15:45:35.835Z,5.10
2019-01-26T15:48:04.833Z,5.10
2019-01-26T15:50:33.521Z,5.00
2019-01-26T15:53:01.968Z,5.00
2019-01-26T15:55:30.854Z,4.90
2019-01-26T15:57:59.473Z,4.90
2019-01-26T16:00:33.208Z,4.80
2019-01-26T16:03:01.757Z,4.80
2019-01-26T16:05:30.342Z,4.80
2019-01-26T16:07:59.127Z,4.70
2019-01-26T16:10:28.064Z,4.70
2019-01-26T16:12:56.707Z,4.60
2019-01-26T16:15:30.187Z,4.50
2019-01-26T16:17:58.678Z,4.50
2019-01-26T16:20:27.271Z,4.50
2019-01-26T16:22:56.187Z,4.40
2019-01-26T16:25:24.711Z,4.40
2019-01-26T16:27:53.780Z,4.40
2019-01-26T16:30:30.675Z,4.30
2019-01-26T16:32:59.271Z,4.30
2019-01-26T16:35:27.989Z,4.20
2019-01-26T16:37:56.511Z,4.10
2019-01-26T16:40:36.011Z,4.10
2019-01-26T16:43:04.883Z,4.00
2019-01-26T16:45:35.713Z,4.00
2019-01-26T16:48:05.576Z,4.00
2019-01-26T16:50:34.188Z,4.00
2019-01-26T16:53:02.717Z,4.00
2019-01-26T16:55:31.331Z,3.90
2019-01-26T16:57:59.846Z,3.90
2019-01-26T17:00:34.148Z,3.90
2019-01-26T17:03:02.676Z,3.90
2019-01-26T17:05:31.345Z,3.90
2019-01-26T17:08:00.493Z,3.90
2019-01-26T17:10:34.167Z,3.90
2019-01-26T17:12:59.631Z,3.90
2019-01-26T17:15:28.390Z,3.80
2019-01-26T17:17:56.874Z,3.80
2019-01-26T17:20:34.848Z,3.80
2019-01-26T17:23:01.059Z,3.80
2019-01-26T17:25:29.880Z,3.80
2019-01-26T17:27:58.499Z,3.80
2019-01-26T17:30:29.743Z,3.80
2019-01-26T17:32:58.298Z,3.80
2019-01-26T17:35:27.062Z,3.80
2019-01-26T17:37:55.542Z,3.80
2019-01-26T17:40:25.841Z,3.80
2019-01-26T17:42:54.705Z,3.80
2019-01-26T17:45:24.156Z,3.80
2019-01-26T17:47:53.460Z,3.90
2019-01-26T17:50:24.051Z,3.90
2019-01-26T17:52:52.647Z,3.90
2019-01-26T17:55:21.267Z,3.90
2019-01-26T17:57:49.971Z,3.90
2019-01-26T18:00:34.183Z,3.90
2019-01-26T18:03:02.711Z,4.00
2019-01-26T18:05:31.269Z,4.00
2019-01-26T18:07:59.868Z,4.00
2019-01-26T18:10:29.444Z,4.00
2019-01-26T18:12:58.360Z,4.00
2019-01-26T18:15:26.895Z,4.10
2019-01-26T18:17:55.438Z,4.10
2019-01-26T18:20:28.827Z,4.10
2019-01-26T18:22:57.743Z,4.10
2019-01-26T18:25:28.119Z,4.10
2019-01-26T18:27:56.599Z,4.10
2019-01-26T18:30:30.265Z,4.10
2019-01-26T18:32:59.092Z,4.10
2019-01-26T18:35:28.086Z,4.10
2019-01-26T18:37:56.615Z,4.10
2019-01-26T18:40:27.207Z,4.10
2019-01-26T18:42:55.995Z,4.10
2019-01-26T18:45:28.915Z,4.10
2019-01-26T18:47:57.439Z,4.10
2019-01-26T18:50:35.015Z,4.10
2019-01-26T18:53:03.743Z,4.10
2019-01-26T18:55:32.220Z,4.10
2019-01-26T18:58:00.831Z,4.10
2019-01-26T19:00:32.481Z,4.20
2019-01-26T19:03:07.079Z,4.20
2019-01-26T19:05:38.740Z,4.20
2019-01-26T19:08:08.020Z,4.20
2019-01-26T19:10:36.687Z,4.20
2019-01-26T19:13:05.559Z,4.20
2019-01-26T19:15:34.011Z,4.20
2019-01-26T19:18:02.530Z,4.20
2019-01-26T19:20:31.006Z,4.20
2019-01-26T19:22:59.526Z,4.20
2019-01-26T19:25:28.327Z,4.20
2019-01-26T19:27:57.122Z,4.20
2019-01-26T19:30:26.009Z,4.20
2019-01-26T19:32:54.507Z,4.30
2019-01-26T19:35:23.179Z,4.20
2019-01-26T19:37:51.626Z,4.30
2019-01-26T19:40:24.750Z,4.30
2019-01-26T19:42:53.271Z,4.30
2019-01-26T19:45:23.866Z,4.30
2019-01-26T19:47:52.459Z,4.30
2019-01-26T19:50:27.167Z,4.30
2019-01-26T19:52:55.620Z,4.30
2019-01-26T19:55:24.613Z,4.30
2019-01-26T19:57:53.539Z,4.30
2019-01-26T20:00:22.527Z,4.30
2019-01-26T20:02:51.219Z,4.40
2019-01-26T20:05:23.926Z,4.40
2019-01-26T20:07:52.891Z,4.40
2019-01-26T20:10:21.678Z,4.40
2019-01-26T20:12:50.226Z,4.40
2019-01-26T20:15:21.159Z,4.40
2019-01-26T20:17:49.783Z,4.40
2019-01-26T20:20:26.918Z,4.40
2019-01-26T20:22:55.541Z,4.40
2019-01-26T20:25:24.130Z,4.40
2019-01-26T20:27:52.755Z,4.40
2019-01-26T20:30:27.188Z,4.40
2019-01-26T20:32:55.836Z,4.40
2019-01-26T20:35:24.720Z,4.40
2019-01-26T20:37:53.968Z,4.50
2019-01-26T20:40:22.888Z,4.50
2019-01-26T20:42:51.435Z,4.50
2019-01-26T20:45:22.760Z,4.40
2019-01-26T20:47:51.231Z,4.50
2019-01-26T20:50:20.112Z,4.50
2019-01-26T20:52:48.828Z,4.50
2019-01-26T20:55:17.351Z,4.50
2019-01-26T20:57:45.868Z,4.50
2019-01-26T21:00:23.079Z,4.50
2019-01-26T21:02:51.599Z,4.50
2019-01-26T21:05:20.212Z,4.50
2019-01-26T21:07:48.741Z,4.50
2019-01-26T21:10:22.386Z,4.50
2019-01-26T21:12:51.476Z,4.50
2019-01-26T21:15:20.387Z,4.50
2019-01-26T21:17:49.275Z,4.60
2019-01-26T21:20:20.195Z,4.50
2019-01-26T21:22:48.816Z,4.50
2019-01-26T21:25:17.418Z,4.50
2019-01-26T21:27:46.579Z,4.50
2019-01-26T21:30:26.507Z,4.50
2019-01-26T21:32:55.424Z,4.50
2019-01-26T21:35:24.315Z,4.50
2019-01-26T21:37:53.102Z,4.50
2019-01-26T21:40:29.178Z,4.50
2019-01-26T21:42:58.291Z,4.50
2019-01-26T21:45:26.806Z,4.50
2019-01-26T21:47:55.396Z,4.50
2019-01-26T21:50:27.463Z,4.50
2019-01-26T21:52:56.346Z,4.50
2019-01-26T21:55:25.059Z,4.50
2019-01-26T21:57:53.582Z,4.50
2019-01-26T22:00:27.187Z,4.50
2019-01-26T22:02:55.849Z,4.50
2019-01-26T22:05:24.547Z,4.50
2019-01-26T22:07:53.425Z,4.50
2019-01-26T22:10:26.914Z,4.50
2019-01-26T22:12:55.599Z,4.40
2019-01-26T22:15:25.109Z,4.50
2019-01-26T22:17:53.625Z,4.50
2019-01-26T22:20:27.163Z,4.50
2019-01-26T22:22:55.955Z,4.40
2019-01-26T22:25:24.642Z,4.40
2019-01-26T22:27:54.250Z,4.40
2019-01-26T22:30:30.664Z,4.40
2019-01-26T22:32:59.984Z,4.40
2019-01-26T22:35:28.899Z,4.40
2019-01-26T22:37:57.815Z,4.40
2019-01-26T22:40:32.215Z,4.40
2019-01-26T22:43:00.961Z,4.40
2019-01-26T22:45:29.737Z,4.40
2019-01-26T22:47:58.767Z,4.40
2019-01-26T22:50:29.147Z,4.30
2019-01-26T22:52:57.835Z,4.30
2019-01-26T22:55:26.551Z,4.30
2019-01-26T22:57:55.147Z,4.30
2019-01-26T23:00:49.702Z,4.30
2019-01-26T23:03:20.291Z,4.30
2019-01-26T23:05:54.460Z,4.20
2019-01-26T23:08:34.536Z,4.30
2019-01-26T23:11:11.627Z,4.20
2019-01-26T23:13:42.747Z,4.20
2019-01-26T23:16:47.658Z,4.10
2019-01-26T23:19:24.614Z,4.10
2019-01-26T23:21:59.059Z,4.10
2019-01-26T23:24:45.647Z,4.10
2019-01-26T23:27:35.115Z,4.10
2019-01-26T23:30:40.054Z,4.10
2019-01-26T23:33:08.904Z,4.10
2019-01-26T23:35:37.451Z,4.10
2019-01-26T23:38:05.966Z,4.00
2019-01-26T23:40:34.415Z,4.00
2019-01-26T23:43:02.892Z,4.00
2019-01-26T23:45:31.345Z,4.00
2019-01-26T23:47:59.896Z,4.00
2019-01-26T23:50:28.420Z,4.00
2019-01-26T23:52:56.907Z,4.00
2019-01-26T23:55:25.503Z,4.00
2019-01-26T23:57:53.955Z,4.00
